createdAt,value
2019-04-14T00:02:23.566Z,11.93
2019-04-14T00:04:52.956Z,12.47
2019-04-14T00:07:22.971Z,12.07
2019-04-14T00:09:52.016Z,11.90
2019-04-14T00:12:21.030Z,12.17
2019-04-14T00:14:49.741Z,11.93
2019-04-14T00:17:19.437Z,11.67
2019-04-14T00:19:48.539Z,11.73
2019-04-14T00:22:18.399Z,12.23
2019-04-14T00:24:46.896Z,12.17
2019-04-14T00:27:15.639Z,11.40
2019-04-14T00:29:44.121Z,11.70
2019-04-14T00:32:13.993Z,12.17
2019-04-14T00:34:57.171Z,11.73
2019-04-14T00:37:53.396Z,11.93
2019-04-14T00:40:29.583Z,11.23
2019-04-14T00:43:13.511Z,11.40
2019-04-14T00:45:53.506Z,11.73
2019-04-14T00:48:24.157Z,11.53
2019-04-14T00:50:54.183Z,11.77
2019-04-14T00:53:22.915Z,11.43
2019-04-14T00:55:51.555Z,11.47
2019-04-14T00:58:21.376Z,11.53
2019-04-14T01:00:50.145Z,11.23
2019-04-14T01:03:19.858Z,11.07
2019-04-14T01:05:48.638Z,11.40
2019-04-14T01:08:18.520Z,11.97
2019-04-14T01:10:47.684Z,11.23
2019-04-14T01:13:16.246Z,11.60
2019-04-14T01:15:51.269Z,11.13
2019-04-14T01:18:14.930Z,11.67
2019-04-14T01:20:44.889Z,11.00
2019-04-14T01:23:15.023Z,10.70
2019-04-14T01:25:45.235Z,10.80
2019-04-14T01:28:14.018Z,11.03
2019-04-14T01:30:45.767Z,11.53
2019-04-14T01:33:14.263Z,11.03
2019-04-14T01:35:44.225Z,11.13
2019-04-14T01:38:12.814Z,11.73
2019-04-14T01:40:42.436Z,10.57
2019-04-14T01:43:10.805Z,10.90
2019-04-14T01:45:40.285Z,10.80
2019-04-14T01:48:08.750Z,10.60
2019-04-14T01:50:58.167Z,10.50
2019-04-14T01:53:53.174Z,10.17
2019-04-14T01:56:40.599Z,11.47
2019-04-14T01:59:09.336Z,10.70
2019-04-14T02:01:38.973Z,10.60
2019-04-14T02:04:07.696Z,10.87
2019-04-14T02:06:37.428Z,10.40
2019-04-14T02:09:09.639Z,11.07
2019-04-14T02:11:38.283Z,10.57
2019-04-14T02:14:08.168Z,10.63
2019-04-14T02:16:41.992Z,10.47
2019-04-14T02:19:08.788Z,10.13
2019-04-14T02:21:38.770Z,10.57
2019-04-14T02:24:09.190Z,10.80
2019-04-14T02:26:39.325Z,11.03
2019-04-14T02:29:08.084Z,10.47
2019-04-14T02:32:03.610Z,10.40
2019-04-14T02:34:45.490Z,10.67
2019-04-14T02:37:04.405Z,10.03
2019-04-14T02:42:28.296Z,11.40
2019-04-14T02:44:40.104Z,10.70
2019-04-14T02:47:17.873Z,11.20
2019-04-14T02:49:48.806Z,10.50
2019-04-14T02:52:04.339Z,10.63
2019-04-14T02:54:47.940Z,10.83
2019-04-14T02:57:12.757Z,10.37
2019-04-14T02:59:45.248Z,10.77
2019-04-14T03:07:14.335Z,11.40
2019-04-14T03:09:42.477Z,10.70
2019-04-14T03:12:09.143Z,10.90
2019-04-14T03:17:31.569Z,11.53
2019-04-14T03:25:39.379Z,10.77
2019-04-14T03:28:29.718Z,11.23
2019-04-14T03:36:43.993Z,11.00
2019-04-14T03:38:49.095Z,11.43
2019-04-14T03:41:23.783Z,11.33
2019-04-14T03:43:54.554Z,10.90
2019-04-14T03:46:21.360Z,11.23
2019-04-14T03:51:23.842Z,12.03
2019-04-14T03:53:44.058Z,11.77
2019-04-14T03:56:44.301Z,11.57
2019-04-14T03:59:15.111Z,12.33
2019-04-14T04:01:43.552Z,11.53
2019-04-14T04:04:12.412Z,12.20
2019-04-14T04:06:42.186Z,12.03
2019-04-14T04:09:17.122Z,12.03
2019-04-14T04:11:45.794Z,12.43
2019-04-14T04:14:14.470Z,11.57
2019-04-14T04:17:12.227Z,11.50
2019-04-14T04:20:04.486Z,11.53
2019-04-14T04:22:52.278Z,11.90
2019-04-14T04:25:40.662Z,11.70
2019-04-14T04:28:32.069Z,12.23
2019-04-14T04:31:05.178Z,12.17
2019-04-14T04:34:08.077Z,12.00
2019-04-14T04:36:46.893Z,12.37
2019-04-14T04:39:21.493Z,11.90
2019-04-14T04:41:50.086Z,12.40
2019-04-14T04:44:18.476Z,12.67
2019-04-14T04:46:48.305Z,12.37
2019-04-14T04:49:22.610Z,13.37
2019-04-14T04:51:48.573Z,12.27
2019-04-14T04:54:18.740Z,12.57
2019-04-14T04:56:47.463Z,12.43
2019-04-14T04:59:17.064Z,12.60
2019-04-14T05:01:45.617Z,13.00
2019-04-14T05:04:15.331Z,13.47
2019-04-14T05:07:01.758Z,12.03
2019-04-14T05:09:49.101Z,13.10
2019-04-14T05:12:45.798Z,12.33
2019-04-14T05:15:29.107Z,12.77
2019-04-14T05:17:58.044Z,13.43
2019-04-14T05:20:27.109Z,13.43
2019-04-14T05:22:57.170Z,13.37
2019-04-14T05:25:25.823Z,13.57
2019-04-14T05:27:54.291Z,12.90
2019-04-14T05:30:24.039Z,13.63
2019-04-14T05:32:54.324Z,13.60
2019-04-14T05:35:23.250Z,13.57
2019-04-14T05:37:52.909Z,13.60
2019-04-14T05:40:21.391Z,13.83
2019-04-14T05:42:49.911Z,13.20
2019-04-14T05:45:19.746Z,13.43
2019-04-14T05:47:48.469Z,13.50
2019-04-14T05:50:18.064Z,14.40
2019-04-14T05:52:47.163Z,13.83
2019-04-14T05:55:15.970Z,13.97
2019-04-14T05:57:44.384Z,13.73
2019-04-14T06:00:19.087Z,13.70
2019-04-14T06:02:53.000Z,14.30
2019-04-14T06:05:31.789Z,13.47
2019-04-14T06:08:09.121Z,13.50
2019-04-14T06:10:48.662Z,14.37
2019-04-14T06:13:24.414Z,14.93
2019-04-14T06:16:00.251Z,14.67
2019-04-14T06:18:35.818Z,14.50
2019-04-14T06:21:10.385Z,14.70
2019-04-14T06:23:52.766Z,14.73
2019-04-14T06:26:29.637Z,14.03
2019-04-14T06:29:04.270Z,14.40
2019-04-14T06:32:14.349Z,14.57
2019-04-14T06:34:55.338Z,14.30
2019-04-14T06:37:38.329Z,13.67
2019-04-14T06:40:14.015Z,14.90
2019-04-14T06:42:50.543Z,15.17
2019-04-14T06:45:30.150Z,15.10
2019-04-14T06:48:06.325Z,14.37
2019-04-14T06:50:46.445Z,14.90
2019-04-14T06:53:25.632Z,15.03
2019-04-14T06:56:01.171Z,14.30
2019-04-14T06:58:35.562Z,14.93
2019-04-14T07:01:12.425Z,14.27
2019-04-14T07:03:48.244Z,14.33
2019-04-14T07:06:24.692Z,14.93
2019-04-14T07:09:04.042Z,14.57
2019-04-14T07:11:41.961Z,15.10
2019-04-14T07:14:17.866Z,14.63
2019-04-14T07:16:54.877Z,15.37
2019-04-14T07:19:30.118Z,14.43
2019-04-14T07:22:06.428Z,14.77
2019-04-14T07:24:45.810Z,15.27
2019-04-14T07:27:22.301Z,15.67
2019-04-14T07:30:18.118Z,14.97
2019-04-14T07:33:14.117Z,14.90
2019-04-14T07:36:14.958Z,15.13
2019-04-14T07:38:53.803Z,14.23
2019-04-14T07:41:36.234Z,14.80
2019-04-14T07:44:22.973Z,14.30
2019-04-14T07:47:18.925Z,14.00
2019-04-14T07:50:15.824Z,15.20
2019-04-14T07:53:15.419Z,15.63
2019-04-14T07:56:05.453Z,14.47
2019-04-14T07:58:55.861Z,15.27
2019-04-14T08:01:37.851Z,14.67
2019-04-14T08:04:29.329Z,14.60
2019-04-14T08:07:05.858Z,14.20
2019-04-14T08:09:43.003Z,14.53
2019-04-14T08:12:25.557Z,14.70
2019-04-14T08:14:59.948Z,14.47
2019-04-14T08:17:34.887Z,14.17
2019-04-14T08:20:27.434Z,14.07
2019-04-14T08:22:53.526Z,13.83
2019-04-14T08:25:29.834Z,14.37
2019-04-14T08:28:07.034Z,14.43
2019-04-14T08:30:41.548Z,14.70
2019-04-14T08:33:20.453Z,13.93
2019-04-14T08:36:05.077Z,14.13
2019-04-14T08:38:39.544Z,14.40
2019-04-14T08:41:14.430Z,14.37
2019-04-14T08:44:08.110Z,14.00
2019-04-14T08:47:11.370Z,13.53
2019-04-14T08:50:01.047Z,13.57
2019-04-14T08:52:48.242Z,13.57
2019-04-14T08:55:38.641Z,13.43
2019-04-14T08:58:29.635Z,14.20
2019-04-14T09:01:14.632Z,13.77
2019-04-14T09:03:58.656Z,13.83
2019-04-14T09:06:50.220Z,14.53
2019-04-14T09:09:35.355Z,13.40
2019-04-14T09:12:33.219Z,13.27
2019-04-14T09:15:18.692Z,13.10
2019-04-14T09:17:48.380Z,13.53
2019-04-14T09:20:27.846Z,13.93
2019-04-14T09:23:02.498Z,13.50
2019-04-14T09:25:36.601Z,13.67
2019-04-14T09:28:11.357Z,12.97
2019-04-14T09:30:51.286Z,13.67
2019-04-14T09:33:28.428Z,13.20
2019-04-14T09:36:04.748Z,12.93
2019-04-14T09:38:43.659Z,13.30
2019-04-14T09:41:19.630Z,13.43
2019-04-14T09:43:54.578Z,14.47
2019-04-14T09:46:29.090Z,13.70
2019-04-14T09:49:11.458Z,14.77
2019-04-14T09:51:49.900Z,14.43
2019-04-14T09:54:25.957Z,13.87
2019-04-14T09:57:01.509Z,14.90
2019-04-14T09:59:57.132Z,14.87
2019-04-14T10:02:33.795Z,20.07
2019-04-14T10:05:10.346Z,15.33
2019-04-14T10:07:46.318Z,15.63
2019-04-14T10:10:27.222Z,15.30
2019-04-14T10:13:02.703Z,15.50
2019-04-14T10:15:40.619Z,15.20
2019-04-14T10:18:17.149Z,15.37
2019-04-14T10:20:51.399Z,16.07
2019-04-14T10:23:30.808Z,15.20
2019-04-14T10:26:07.477Z,15.53
2019-04-14T10:28:44.115Z,14.60
2019-04-14T10:31:23.339Z,16.33
2019-04-14T10:34:01.579Z,15.30
2019-04-14T10:36:39.105Z,16.10
2019-04-14T10:39:20.726Z,14.80
2019-04-14T10:41:54.506Z,16.13
2019-04-14T10:44:29.851Z,15.37
2019-04-14T10:47:10.473Z,15.07
2019-04-14T10:49:49.530Z,15.33
2019-04-14T10:52:25.117Z,14.43
2019-04-14T10:55:03.319Z,15.60
2019-04-14T10:57:40.017Z,14.20
2019-04-14T11:00:21.595Z,15.33
2019-04-14T11:03:01.023Z,14.77
2019-04-14T11:05:52.411Z,15.30
2019-04-14T11:08:26.915Z,15.13
2019-04-14T11:11:02.093Z,14.50
2019-04-14T11:13:39.975Z,16.50
2019-04-14T11:16:13.329Z,14.87
2019-04-14T11:18:52.076Z,16.00
2019-04-14T11:21:41.985Z,13.97
2019-04-14T11:24:09.286Z,14.40
2019-04-14T11:26:45.243Z,15.43
2019-04-14T11:29:23.627Z,15.27
2019-04-14T11:32:20.376Z,14.87
2019-04-14T11:35:05.373Z,14.60
2019-04-14T11:38:04.833Z,14.20
2019-04-14T11:40:45.667Z,14.83
2019-04-14T11:43:27.084Z,14.90
2019-04-14T11:46:08.044Z,15.23
2019-04-14T11:48:49.578Z,14.00
2019-04-14T11:51:25.861Z,13.70
2019-04-14T11:54:07.172Z,14.10
2019-04-14T11:56:46.616Z,14.17
2019-04-14T11:59:31.305Z,14.37
2019-04-14T12:02:26.274Z,13.93
2019-04-14T12:05:21.833Z,13.97
2019-04-14T12:08:18.335Z,13.77
2019-04-14T12:10:59.373Z,14.03
2019-04-14T12:13:42.877Z,13.40
2019-04-14T12:16:19.619Z,13.87
2019-04-14T12:18:57.528Z,15.00
2019-04-14T12:21:34.492Z,14.30
2019-04-14T12:24:12.150Z,14.20
2019-04-14T12:26:55.410Z,13.77
2019-04-14T12:29:37.475Z,14.40
2019-04-14T12:32:17.116Z,14.90
2019-04-14T12:34:46.332Z,13.53
2019-04-14T12:37:22.328Z,13.80
2019-04-14T12:39:59.671Z,13.50
2019-04-14T12:43:10.716Z,14.37
2019-04-14T12:46:00.822Z,14.43
2019-04-14T12:48:54.452Z,13.40
2019-04-14T12:51:37.025Z,13.43
2019-04-14T12:54:16.423Z,12.83
2019-04-14T12:56:52.807Z,13.53
2019-04-14T12:59:34.000Z,13.10
2019-04-14T13:02:19.622Z,12.67
2019-04-14T13:04:55.700Z,12.80
2019-04-14T13:07:39.159Z,13.23
2019-04-14T13:10:18.688Z,13.13
2019-04-14T13:12:52.219Z,13.23
2019-04-14T13:15:27.484Z,12.60
2019-04-14T13:18:10.268Z,12.53
2019-04-14T13:20:45.299Z,12.70
2019-04-14T13:23:25.682Z,12.60
2019-04-14T13:26:02.924Z,13.73
2019-04-14T13:28:38.487Z,13.47
2019-04-14T13:31:14.191Z,13.93
2019-04-14T13:33:48.669Z,14.40
2019-04-14T13:36:24.415Z,14.80
2019-04-14T13:39:01.088Z,15.13
2019-04-14T13:41:38.605Z,15.10
2019-04-14T13:44:13.279Z,15.47
2019-04-14T13:46:48.346Z,14.97
2019-04-14T13:49:22.377Z,14.23
2019-04-14T13:51:58.810Z,14.03
2019-04-14T13:54:35.458Z,13.60
2019-04-14T13:57:20.867Z,13.07
2019-04-14T13:59:56.751Z,12.90
2019-04-14T14:02:33.737Z,12.53
2019-04-14T14:05:08.440Z,12.77
2019-04-14T14:07:46.451Z,12.93
2019-04-14T14:10:22.377Z,13.23
2019-04-14T14:13:19.791Z,12.80
2019-04-14T14:16:16.200Z,12.77
2019-04-14T14:19:13.484Z,12.57
2019-04-14T14:22:10.413Z,12.97
2019-04-14T14:24:50.350Z,12.77
2019-04-14T14:27:33.466Z,13.60
2019-04-14T14:30:08.693Z,13.03
2019-04-14T14:32:42.582Z,13.30
2019-04-14T14:35:26.179Z,12.70
2019-04-14T14:38:01.248Z,13.57
2019-04-14T14:40:39.454Z,13.07
2019-04-14T14:43:14.655Z,13.23
2019-04-14T14:46:14.958Z,13.73
2019-04-14T14:49:02.359Z,12.60
2019-04-14T14:52:01.343Z,12.30
2019-04-14T14:54:47.345Z,11.77
2019-04-14T14:57:30.530Z,11.73
2019-04-14T15:00:07.471Z,11.27
2019-04-14T15:02:47.151Z,11.00
2019-04-14T15:05:25.373Z,10.77
2019-04-14T15:08:10.069Z,11.33
2019-04-14T15:10:47.850Z,11.27
2019-04-14T15:13:23.620Z,10.90
2019-04-14T15:16:03.889Z,10.90
2019-04-14T15:18:43.833Z,10.93
2019-04-14T15:21:19.742Z,10.97
2019-04-14T15:23:58.549Z,10.73
2019-04-14T15:26:34.882Z,10.03
2019-04-14T15:29:12.909Z,10.80
2019-04-14T15:31:49.399Z,9.67
2019-04-14T15:34:25.210Z,9.60
2019-04-14T15:37:01.929Z,10.30
2019-04-14T15:39:48.256Z,11.20
2019-04-14T15:42:17.906Z,11.13
2019-04-14T15:44:46.759Z,10.70
2019-04-14T15:47:24.346Z,10.40
2019-04-14T15:50:09.364Z,11.60
2019-04-14T15:52:50.676Z,10.80
2019-04-14T15:55:28.718Z,11.10
2019-04-14T15:58:23.179Z,11.20
2019-04-14T16:01:24.338Z,11.27
2019-04-14T16:04:19.774Z,11.27
2019-04-14T16:07:17.043Z,11.03
2019-04-14T16:10:10.323Z,11.70
2019-04-14T16:13:08.260Z,10.70
2019-04-14T16:15:53.718Z,10.57
2019-04-14T16:19:06.731Z,11.17
2019-04-14T16:21:44.362Z,11.47
2019-04-14T16:24:23.348Z,11.77
2019-04-14T16:27:09.755Z,12.17
2019-04-14T16:30:04.732Z,12.23
2019-04-14T16:33:05.762Z,13.13
2019-04-14T16:35:41.874Z,13.23
2019-04-14T16:38:17.026Z,13.10
2019-04-14T16:40:54.408Z,13.40
2019-04-14T16:43:34.152Z,12.30
2019-04-14T16:46:12.932Z,12.00
2019-04-14T16:48:49.684Z,13.87
2019-04-14T16:51:39.808Z,13.47
2019-04-14T16:54:23.537Z,13.50
2019-04-14T16:57:17.269Z,13.90
2019-04-14T16:59:56.967Z,14.63
2019-04-14T17:02:30.369Z,14.50
2019-04-14T17:05:05.370Z,14.10
2019-04-14T17:07:44.137Z,14.63
2019-04-14T17:10:24.662Z,14.80
2019-04-14T17:13:01.463Z,13.57
2019-04-14T17:15:45.003Z,14.07
2019-04-14T17:18:34.592Z,13.13
2019-04-14T17:21:21.064Z,15.00
2019-04-14T17:24:27.692Z,15.20
2019-04-14T17:27:24.298Z,14.40
2019-04-14T17:30:27.181Z,14.47
2019-04-14T17:33:14.695Z,14.63
2019-04-14T17:36:04.092Z,13.10
2019-04-14T17:38:58.541Z,15.40
2019-04-14T17:41:50.008Z,14.80
2019-04-14T17:44:30.267Z,24.63
2019-04-14T17:47:22.824Z,14.23
2019-04-14T17:50:40.436Z,15.53
2019-04-14T17:53:39.932Z,15.33
2019-04-14T17:56:41.253Z,15.43
2019-04-14T17:59:36.851Z,12.73
2019-04-14T18:02:32.310Z,14.87
2019-04-14T18:05:35.963Z,13.70
2019-04-14T18:08:21.548Z,16.03
2019-04-14T18:11:00.298Z,15.03
2019-04-14T18:13:50.026Z,15.33
2019-04-14T18:16:49.096Z,14.63
2019-04-14T18:19:46.309Z,13.80
2019-04-14T18:22:23.917Z,14.07
2019-04-14T18:25:10.473Z,15.10
2019-04-14T18:28:03.480Z,15.00
2019-04-14T18:30:48.645Z,14.20
2019-04-14T18:33:49.270Z,19.93
2019-04-14T18:36:35.696Z,16.00
2019-04-14T18:39:37.836Z,14.43
2019-04-14T18:42:18.832Z,13.60
2019-04-14T18:45:06.526Z,13.30
2019-04-14T18:48:07.871Z,17.60
2019-04-14T18:51:09.308Z,20.50
2019-04-14T18:54:05.118Z,14.07
2019-04-14T18:56:57.520Z,14.67
2019-04-14T18:59:41.979Z,14.37
2019-04-14T19:02:23.724Z,14.50
2019-04-14T19:05:02.870Z,15.90
2019-04-14T19:07:52.753Z,14.13
2019-04-14T19:10:37.230Z,15.10
2019-04-14T19:13:27.045Z,15.37
2019-04-14T19:16:15.514Z,14.60
2019-04-14T19:18:49.907Z,13.00
2019-04-14T19:21:23.900Z,12.93
2019-04-14T19:23:57.481Z,14.03
2019-04-14T19:26:30.520Z,13.00
2019-04-14T19:28:59.558Z,14.40
2019-04-14T19:31:29.206Z,12.57
2019-04-14T19:33:58.752Z,13.77
2019-04-14T19:36:29.819Z,13.73
2019-04-14T19:39:01.133Z,12.40
2019-04-14T19:41:31.187Z,13.17
2019-04-14T19:44:00.512Z,12.67
2019-04-14T19:46:31.131Z,12.63
2019-04-14T19:49:02.277Z,12.63
2019-04-14T19:51:32.406Z,12.03
2019-04-14T19:54:02.066Z,12.83
2019-04-14T19:56:31.925Z,13.33
2019-04-14T19:59:02.939Z,14.17
2019-04-14T20:01:32.711Z,13.77
2019-04-14T20:04:01.864Z,13.50
2019-04-14T20:06:31.761Z,13.60
2019-04-14T20:09:07.070Z,13.87
2019-04-14T20:11:36.599Z,13.63
2019-04-14T20:14:06.531Z,13.47
2019-04-14T20:16:46.681Z,13.67
2019-04-14T20:19:40.442Z,13.53
2019-04-14T20:22:35.058Z,13.00
2019-04-14T20:25:33.865Z,15.83
2019-04-14T20:28:24.720Z,12.80
2019-04-14T20:31:06.140Z,14.10
2019-04-14T20:33:36.360Z,12.87
2019-04-14T20:36:05.804Z,13.63
2019-04-14T20:38:36.992Z,12.97
2019-04-14T20:41:06.281Z,13.77
2019-04-14T20:43:36.611Z,13.20
2019-04-14T20:46:08.494Z,14.00
2019-04-14T20:48:40.488Z,13.57
2019-04-14T20:51:09.879Z,13.43
2019-04-14T20:53:39.307Z,12.60
2019-04-14T20:56:09.118Z,12.57
2019-04-14T20:58:38.872Z,12.93
2019-04-14T21:01:10.827Z,12.37
2019-04-14T21:04:03.054Z,13.47
2019-04-14T21:06:42.322Z,11.83
2019-04-14T21:09:15.933Z,12.07
2019-04-14T21:12:00.938Z,12.47
2019-04-14T21:14:50.870Z,12.53
2019-04-14T21:17:38.888Z,12.33
2019-04-14T21:20:20.972Z,12.73
2019-04-14T21:22:56.451Z,12.70
2019-04-14T21:25:37.178Z,12.23
2019-04-14T21:28:25.362Z,12.50
2019-04-14T21:31:06.236Z,12.20
2019-04-14T21:33:58.753Z,12.23
2019-04-14T21:36:43.446Z,11.97
2019-04-14T21:39:34.782Z,12.40
2019-04-14T21:42:03.490Z,12.23
2019-04-14T21:44:32.285Z,11.97
2019-04-14T21:47:01.378Z,12.53
2019-04-14T21:49:29.895Z,12.90
2019-04-14T21:52:18.354Z,11.70
2019-04-14T21:54:46.812Z,12.97
2019-04-14T21:57:32.944Z,12.53
2019-04-14T22:00:24.048Z,11.80
2019-04-14T22:03:13.647Z,11.87
2019-04-14T22:05:54.942Z,12.47
2019-04-14T22:08:27.523Z,12.13
2019-04-14T22:10:59.526Z,12.07
2019-04-14T22:13:28.062Z,12.10
2019-04-14T22:15:56.536Z,13.07
2019-04-14T22:18:25.258Z,12.40
2019-04-14T22:20:54.168Z,11.87
2019-04-14T22:23:23.021Z,12.93
2019-04-14T22:25:51.735Z,13.30
2019-04-14T22:28:20.564Z,12.00
2019-04-14T22:30:49.280Z,13.10
2019-04-14T22:33:17.995Z,12.37
2019-04-14T22:35:46.839Z,13.27
2019-04-14T22:38:15.531Z,12.83
2019-04-14T22:40:44.248Z,12.57
2019-04-14T22:43:12.807Z,12.80
2019-04-14T22:45:41.582Z,13.83
2019-04-14T22:48:10.111Z,12.70
2019-04-14T22:50:38.654Z,13.13
2019-04-14T22:53:07.030Z,12.63
2019-04-14T22:55:35.588Z,12.80
2019-04-14T22:58:05.234Z,12.57
2019-04-14T23:00:50.810Z,13.10
2019-04-14T23:03:40.660Z,13.37
2019-04-14T23:06:27.283Z,13.03
2019-04-14T23:09:07.215Z,13.50
2019-04-14T23:12:04.213Z,13.23
2019-04-14T23:14:57.947Z,13.80
2019-04-14T23:17:32.299Z,13.97
2019-04-14T23:20:26.390Z,13.83
2019-04-14T23:23:23.570Z,13.47
2019-04-14T23:25:52.299Z,14.60
2019-04-14T23:28:20.985Z,13.97
2019-04-14T23:30:49.709Z,14.17
2019-04-14T23:33:18.058Z,14.20
2019-04-14T23:35:46.523Z,14.83
2019-04-14T23:38:15.368Z,14.30
2019-04-14T23:40:43.902Z,14.03
2019-04-14T23:43:12.520Z,14.80
2019-04-14T23:45:41.207Z,13.97
2019-04-14T23:48:10.323Z,14.67
2019-04-14T23:50:39.354Z,14.47
2019-04-14T23:53:08.073Z,14.67
2019-04-14T23:55:36.518Z,14.50
2019-04-14T23:58:05.217Z,14.87
